createdAt,value
2023-03-12T00:02:01.326Z,98627.01
2023-03-12T00:04:32.468Z,98626.16
2023-03-12T00:07:03.372Z,98634.11
2023-03-12T00:09:35.787Z,98634.14
2023-03-12T00:12:07.686Z,98639.96
2023-03-12T00:14:39.616Z,98638.30
2023-03-12T00:17:10.435Z,98643.73
2023-03-12T00:19:41.400Z,98651.73
2023-03-12T00:22:12.358Z,98658.60
2023-03-12T00:24:43.394Z,98660.36
2023-03-12T00:27:14.097Z,98662.03
2023-03-12T00:29:45.065Z,98661.53
2023-03-12T00:32:16.084Z,98663.54
2023-03-12T00:34:51.605Z,98663.58
2023-03-12T00:37:22.395Z,98647.20
2023-03-12T00:39:53.635Z,98641.59
2023-03-12T00:42:24.258Z,98639.41
2023-03-12T00:44:55.316Z,98646.34
2023-03-12T00:47:26.033Z,98652.03
2023-03-12T00:49:56.793Z,98662.98
2023-03-12T00:52:27.638Z,98666.82
2023-03-12T00:54:59.001Z,98667.34
2023-03-12T00:57:30.069Z,98665.64
2023-03-12T01:00:00.776Z,98660.04
2023-03-12T01:02:31.717Z,98667.70
2023-03-12T01:05:02.349Z,98669.50
2023-03-12T01:07:32.979Z,98671.31
2023-03-12T01:10:03.727Z,98671.39
2023-03-12T01:12:34.472Z,98672.45
2023-03-12T01:15:06.235Z,98671.99
2023-03-12T01:17:37.214Z,98672.66
2023-03-12T01:20:10.558Z,98670.20
2023-03-12T01:22:41.620Z,98674.96
2023-03-12T01:25:14.221Z,98674.50
2023-03-12T01:27:45.109Z,98679.36
2023-03-12T01:30:17.121Z,98684.55
2023-03-12T01:32:47.873Z,98680.16
2023-03-12T01:35:19.163Z,98681.34
2023-03-12T01:37:49.833Z,98684.66
2023-03-12T01:40:25.504Z,98688.15
2023-03-12T01:42:57.616Z,98685.55
2023-03-12T01:46:03.398Z,98688.63
2023-03-12T01:48:40.938Z,98693.58
2023-03-12T01:51:15.000Z,98697.59
2023-03-12T01:53:48.916Z,98695.88
2023-03-12T01:56:22.039Z,98699.79
2023-03-12T01:58:56.755Z,98701.25
2023-03-12T02:01:28.968Z,98706.87
2023-03-12T02:04:02.516Z,98707.23
2023-03-12T02:06:38.882Z,98709.08
2023-03-12T02:09:12.672Z,98715.86
2023-03-12T02:11:43.347Z,98713.41
2023-03-12T02:14:14.892Z,98714.11
2023-03-12T02:16:46.335Z,98714.75
2023-03-12T02:19:27.015Z,98718.16
2023-03-12T02:21:58.337Z,98718.45
2023-03-12T02:24:35.561Z,98718.32
2023-03-12T02:27:08.031Z,98717.23
2023-03-12T02:29:41.281Z,98718.50
2023-03-12T02:32:21.610Z,98717.93
2023-03-12T02:34:52.502Z,98718.63
2023-03-12T02:37:23.272Z,98721.48
2023-03-12T02:40:02.046Z,98725.02
2023-03-12T02:42:36.267Z,98727.20
2023-03-12T02:45:08.326Z,98731.72
2023-03-12T02:47:39.065Z,98731.52
2023-03-12T02:50:12.464Z,98737.96
2023-03-12T02:52:43.314Z,98735.56
2023-03-12T02:55:14.290Z,98739.95
2023-03-12T02:57:45.604Z,98740.48
2023-03-12T03:00:18.917Z,98745.89
2023-03-12T03:02:49.575Z,98749.58
2023-03-12T03:05:21.740Z,98748.79
2023-03-12T03:07:52.480Z,98752.41
2023-03-12T03:10:23.285Z,98757.23
2023-03-12T03:12:53.967Z,98760.27
2023-03-12T03:15:24.651Z,98761.44
2023-03-12T03:17:55.393Z,98765.05
2023-03-12T03:20:26.760Z,98764.92
2023-03-12T03:22:57.380Z,98769.91
2023-03-12T03:25:29.042Z,98774.34
2023-03-12T03:27:59.665Z,98783.66
2023-03-12T03:30:30.622Z,98784.85
2023-03-12T03:33:01.380Z,98782.17
2023-03-12T03:35:32.035Z,98785.02
2023-03-12T03:38:02.871Z,98789.33
2023-03-12T03:40:33.609Z,98791.54
2023-03-12T03:43:04.612Z,98792.61
2023-03-12T03:45:35.457Z,98789.59
2023-03-12T03:48:08.019Z,98790.55
2023-03-12T03:50:40.020Z,98794.30
2023-03-12T03:53:12.714Z,98794.19
2023-03-12T03:55:43.867Z,98792.60
2023-03-12T03:58:15.196Z,98792.46
2023-03-12T04:00:47.969Z,98793.14
2023-03-12T04:03:18.830Z,98792.98
2023-03-12T04:05:54.733Z,98793.84
2023-03-12T04:08:26.032Z,98800.31
2023-03-12T04:10:56.766Z,98797.59
2023-03-12T04:13:28.015Z,98801.99
2023-03-12T04:15:58.715Z,98804.58
2023-03-12T04:18:29.474Z,98808.67
2023-03-12T04:21:00.194Z,98813.06
2023-03-12T04:23:30.879Z,98814.92
2023-03-12T04:26:01.798Z,98814.95
2023-03-12T04:28:33.286Z,98820.72
2023-03-12T04:31:06.208Z,98825.13
2023-03-12T04:33:39.046Z,98821.97
2023-03-12T04:36:13.709Z,98822.27
2023-03-12T04:38:46.943Z,98824.80
2023-03-12T04:41:18.292Z,98829.31
2023-03-12T04:43:49.138Z,98828.89
2023-03-12T04:46:19.898Z,98835.98
2023-03-12T04:48:50.820Z,98835.13
2023-03-12T04:51:21.722Z,98836.53
2023-03-12T04:53:52.849Z,98836.21
2023-03-12T04:56:23.863Z,98839.34
2023-03-12T04:58:54.768Z,98841.10
2023-03-12T05:01:28.752Z,98843.71
2023-03-12T05:03:59.685Z,98839.99
2023-03-12T05:06:30.421Z,98841.69
2023-03-12T05:09:01.199Z,98836.11
2023-03-12T05:11:32.064Z,98841.11
2023-03-12T05:14:03.045Z,98844.40
2023-03-12T05:16:33.757Z,98843.98
2023-03-12T05:19:04.796Z,98841.09
2023-03-12T05:21:35.840Z,98846.41
2023-03-12T05:24:07.703Z,98851.94
2023-03-12T05:26:39.143Z,98856.29
2023-03-12T05:29:10.511Z,98864.52
2023-03-12T05:31:42.046Z,98861.33
2023-03-12T05:34:14.273Z,98861.48
2023-03-12T05:36:45.480Z,98864.74
2023-03-12T05:39:16.217Z,98868.58
2023-03-12T05:41:47.117Z,98874.67
2023-03-12T05:44:18.015Z,98880.67
2023-03-12T05:46:48.857Z,98885.20
2023-03-12T05:49:19.787Z,98889.91
2023-03-12T05:51:51.493Z,98893.33
2023-03-12T05:54:22.286Z,98893.89
2023-03-12T05:56:53.471Z,98893.77
2023-03-12T05:59:24.370Z,98895.26
2023-03-12T06:01:55.288Z,98892.57
2023-03-12T06:04:26.151Z,98891.34
2023-03-12T06:06:56.998Z,98890.23
2023-03-12T06:09:27.728Z,98894.36
2023-03-12T06:11:59.561Z,98891.97
2023-03-12T06:14:30.328Z,98890.99
2023-03-12T06:17:01.249Z,98892.08
2023-03-12T06:19:32.214Z,98895.20
2023-03-12T06:22:03.154Z,98896.11
2023-03-12T06:24:33.901Z,98900.27
2023-03-12T06:27:05.243Z,98903.75
2023-03-12T06:29:36.094Z,98906.48
2023-03-12T06:32:07.658Z,98910.84
2023-03-12T06:34:38.420Z,98912.44
2023-03-12T06:37:09.433Z,98914.27
2023-03-12T06:39:40.782Z,98917.41
2023-03-12T06:42:13.191Z,98919.77
2023-03-12T06:44:44.557Z,98922.37
2023-03-12T06:47:17.584Z,98924.02
2023-03-12T06:49:48.741Z,98925.10
2023-03-12T06:52:19.693Z,98927.58
2023-03-12T06:54:50.547Z,98931.86
2023-03-12T06:57:21.494Z,98931.89
2023-03-12T06:59:52.414Z,98933.48
2023-03-12T07:02:23.522Z,98934.35
2023-03-12T07:04:54.710Z,98935.91
2023-03-12T07:07:25.569Z,98936.07
2023-03-12T07:09:56.623Z,98934.23
2023-03-12T07:12:27.641Z,98932.90
2023-03-12T07:14:58.514Z,98930.05
2023-03-12T07:17:29.334Z,98928.69
2023-03-12T07:20:00.548Z,98929.70
2023-03-12T07:22:31.571Z,98929.51
2023-03-12T07:25:02.354Z,98930.58
2023-03-12T07:27:33.426Z,98933.59
2023-03-12T07:30:04.932Z,98931.99
2023-03-12T07:32:36.904Z,98928.61
2023-03-12T07:35:08.776Z,98928.80
2023-03-12T07:37:40.241Z,98930.48
2023-03-12T07:40:13.588Z,98927.27
2023-03-12T07:42:44.500Z,98925.06
2023-03-12T07:45:15.786Z,98925.46
2023-03-12T07:47:47.513Z,98930.30
2023-03-12T07:50:20.230Z,98931.14
2023-03-12T07:52:51.809Z,98931.48
2023-03-12T07:55:23.307Z,98933.66
2023-03-12T07:57:56.750Z,98932.63
2023-03-12T08:00:29.184Z,98936.45
2023-03-12T08:03:00.205Z,98937.90
2023-03-12T08:05:31.311Z,98940.06
2023-03-12T08:08:02.354Z,98936.86
2023-03-12T08:10:33.267Z,98936.80
2023-03-12T08:13:04.375Z,98936.34
2023-03-12T08:15:35.240Z,98937.73
2023-03-12T08:18:06.362Z,98944.56
2023-03-12T08:20:37.515Z,98946.95
2023-03-12T08:23:08.726Z,98946.11
2023-03-12T08:25:40.314Z,98945.02
2023-03-12T08:28:11.270Z,98945.79
2023-03-12T08:30:46.092Z,98945.09
2023-03-12T08:33:17.035Z,98947.53
2023-03-12T08:35:48.590Z,98947.61
2023-03-12T08:38:19.748Z,98947.73
2023-03-12T08:40:58.277Z,98946.09
2023-03-12T08:43:30.295Z,98944.11
2023-03-12T08:46:02.863Z,98944.69
2023-03-12T08:48:34.484Z,98944.61
2023-03-12T08:51:07.609Z,98946.68
2023-03-12T08:53:39.712Z,98945.55
2023-03-12T08:56:10.899Z,98948.56
2023-03-12T08:58:41.811Z,98947.22
2023-03-12T09:01:13.705Z,98948.10
2023-03-12T09:03:44.510Z,98947.65
2023-03-12T09:06:17.042Z,98944.67
2023-03-12T09:08:51.827Z,98944.20
2023-03-12T09:11:25.760Z,98943.63
2023-03-12T09:14:33.502Z,98942.05
2023-03-12T09:16:47.501Z,98940.41
2023-03-12T09:19:18.762Z,98934.69
2023-03-12T09:21:49.612Z,98933.14
2023-03-12T09:24:20.496Z,98929.42
2023-03-12T09:26:51.442Z,98930.84
2023-03-12T09:29:22.249Z,98932.05
2023-03-12T09:31:53.120Z,98932.51
2023-03-12T09:34:24.186Z,98934.75
2023-03-12T09:36:55.015Z,98935.97
2023-03-12T09:39:26.140Z,98932.35
2023-03-12T09:41:56.889Z,98930.20
2023-03-12T09:44:35.996Z,98927.24
2023-03-12T09:47:12.652Z,98928.46
2023-03-12T09:49:48.039Z,98926.69
2023-03-12T09:52:25.961Z,98924.05
2023-03-12T09:55:04.054Z,98925.70
2023-03-12T09:57:34.934Z,98926.60
2023-03-12T10:00:07.347Z,98924.91
2023-03-12T10:02:54.242Z,98919.35
2023-03-12T10:05:36.176Z,98921.71
2023-03-12T10:08:24.398Z,98923.29
2023-03-12T10:11:06.927Z,98916.27
2023-03-12T10:14:05.154Z,98919.04
2023-03-12T10:16:46.884Z,98919.51
2023-03-12T10:19:29.986Z,98915.29
2023-03-12T10:22:08.831Z,98916.15
2023-03-12T10:24:56.713Z,98913.04
2023-03-12T10:27:31.529Z,98913.85
2023-03-12T10:30:04.745Z,98915.94
2023-03-12T10:32:42.958Z,98917.52
2023-03-12T10:35:21.741Z,98911.77
2023-03-12T10:37:55.632Z,98908.05
2023-03-12T10:40:29.177Z,98904.73
2023-03-12T10:43:00.261Z,98904.55
2023-03-12T10:45:35.648Z,98902.66
2023-03-12T10:48:08.833Z,98898.70
2023-03-12T10:50:42.481Z,98898.60
2023-03-12T10:53:23.910Z,98902.41
2023-03-12T10:56:09.115Z,98907.79
2023-03-12T10:58:42.452Z,98908.63
2023-03-12T11:01:21.593Z,98907.38
2023-03-12T11:03:53.023Z,98899.77
2023-03-12T11:06:28.870Z,98898.65
2023-03-12T11:09:18.550Z,98894.20
2023-03-12T11:11:50.943Z,98894.42
2023-03-12T11:14:23.663Z,98897.19
2023-03-12T11:16:57.670Z,98895.56
2023-03-12T11:19:32.987Z,98892.52
2023-03-12T11:22:05.756Z,98887.88
2023-03-12T11:24:36.888Z,98890.84
2023-03-12T11:27:19.257Z,98891.86
2023-03-12T11:29:51.943Z,98886.77
2023-03-12T11:32:30.552Z,98882.34
2023-03-12T11:35:02.838Z,98879.52
2023-03-12T11:37:47.726Z,98877.56
2023-03-12T11:40:32.679Z,98876.64
2023-03-12T11:43:35.961Z,98873.25
2023-03-12T11:46:28.309Z,98865.58
2023-03-12T11:49:11.640Z,98865.94
2023-03-12T11:51:54.842Z,98854.79
2023-03-12T11:55:06.827Z,98848.35
2023-03-12T11:57:50.719Z,98849.48
2023-03-12T12:00:27.270Z,98841.65
2023-03-12T12:03:26.783Z,98836.75
2023-03-12T12:06:03.422Z,98834.25
2023-03-12T12:08:49.060Z,98828.52
2023-03-12T12:11:28.904Z,98824.07
2023-03-12T12:14:05.302Z,98823.71
2023-03-12T12:16:49.737Z,98825.09
2023-03-12T12:19:33.142Z,98821.48
2023-03-12T12:22:24.210Z,98822.23
2023-03-12T12:25:23.764Z,98826.91
2023-03-12T12:28:08.040Z,98822.84
2023-03-12T12:30:50.263Z,98815.00
2023-03-12T12:33:35.993Z,98810.20
2023-03-12T12:36:11.443Z,98804.72
2023-03-12T12:38:46.561Z,98801.63
2023-03-12T12:41:23.336Z,98791.14
2023-03-12T12:43:58.752Z,98784.46
2023-03-12T12:46:36.300Z,98786.63
2023-03-12T12:49:13.460Z,98781.28
2023-03-12T12:51:49.242Z,98785.86
2023-03-12T12:54:34.199Z,98783.80
2023-03-12T12:57:12.896Z,98779.92
2023-03-12T12:59:53.571Z,98779.60
2023-03-12T13:02:28.812Z,98771.48
2023-03-12T13:05:01.235Z,98770.71
2023-03-12T13:07:36.292Z,98774.56
2023-03-12T13:10:31.210Z,98772.13
2023-03-12T13:13:05.523Z,98772.65
2023-03-12T13:15:43.743Z,98777.63
2023-03-12T13:18:25.650Z,98777.86
2023-03-12T13:21:19.953Z,98774.48
2023-03-12T13:24:04.212Z,98780.86
2023-03-12T13:26:52.645Z,98778.66
2023-03-12T13:29:37.885Z,98782.34
2023-03-12T13:32:31.766Z,98784.71
2023-03-12T13:35:07.952Z,98784.52
2023-03-12T13:38:08.745Z,98783.98
2023-03-12T13:41:01.177Z,98782.20
2023-03-12T13:43:51.517Z,98780.48
2023-03-12T13:46:41.695Z,98767.44
2023-03-12T13:49:19.215Z,98767.64
2023-03-12T13:51:59.191Z,98771.43
2023-03-12T13:54:36.283Z,98765.45
2023-03-12T13:57:14.842Z,98768.35
2023-03-12T13:59:51.297Z,98768.00
2023-03-12T14:02:28.414Z,98769.79
2023-03-12T14:05:07.260Z,98761.38
2023-03-12T14:08:18.129Z,98754.92
2023-03-12T14:11:14.107Z,98749.41
2023-03-12T14:14:00.424Z,98742.13
2023-03-12T14:16:36.854Z,98739.16
2023-03-12T14:19:14.720Z,98739.06
2023-03-12T14:21:47.644Z,98737.71
2023-03-12T14:24:27.330Z,98735.95
2023-03-12T14:26:58.993Z,98734.12
2023-03-12T14:29:36.093Z,98737.99
2023-03-12T14:32:15.214Z,98736.49
2023-03-12T14:34:51.643Z,98733.88
2023-03-12T14:37:26.050Z,98725.34
2023-03-12T14:39:58.940Z,98726.37
2023-03-12T14:42:33.878Z,98717.25
2023-03-12T14:45:12.248Z,98706.61
2023-03-12T14:47:47.262Z,98701.81
2023-03-12T14:50:23.794Z,98695.64
2023-03-12T14:52:54.841Z,98692.55
2023-03-12T14:55:27.244Z,98694.61
2023-03-12T14:58:15.998Z,98689.69
2023-03-12T15:00:57.686Z,98689.19
2023-03-12T15:03:29.954Z,98684.31
2023-03-12T15:06:01.195Z,98683.97
2023-03-12T15:08:33.487Z,98677.07
2023-03-12T15:11:06.020Z,98674.51
2023-03-12T15:13:40.743Z,98680.92
2023-03-12T15:16:12.440Z,98684.30
2023-03-12T15:18:44.175Z,98688.80
2023-03-12T15:21:15.443Z,98684.12
2023-03-12T15:23:48.797Z,98678.77
2023-03-12T15:26:32.078Z,98676.15
2023-03-12T15:29:05.201Z,98677.05
2023-03-12T15:31:46.508Z,98679.82
2023-03-12T15:34:33.235Z,98680.47
2023-03-12T15:37:20.316Z,98683.59
2023-03-12T15:39:53.563Z,98685.05
2023-03-12T15:42:27.244Z,98692.37
2023-03-12T15:44:57.975Z,98695.89
2023-03-12T15:47:32.140Z,98702.30
2023-03-12T15:50:09.013Z,98698.55
2023-03-12T15:52:41.615Z,98694.58
2023-03-12T15:55:28.887Z,98688.52
2023-03-12T15:58:00.844Z,98684.57
2023-03-12T16:00:42.461Z,98674.53
2023-03-12T16:03:20.676Z,98664.87
2023-03-12T16:05:52.455Z,98663.15
2023-03-12T16:08:29.051Z,98668.13
2023-03-12T16:11:00.112Z,98668.33
2023-03-12T16:13:33.402Z,98665.68
2023-03-12T16:16:04.657Z,98668.61
2023-03-12T16:18:36.043Z,98670.79
2023-03-12T16:21:07.646Z,98657.88
2023-03-12T16:23:39.991Z,98652.97
2023-03-12T16:26:14.462Z,98649.03
2023-03-12T16:28:46.288Z,98649.36
2023-03-12T16:31:18.199Z,98655.11
2023-03-12T16:33:49.490Z,98649.58
2023-03-12T16:36:21.030Z,98648.95
2023-03-12T16:38:52.153Z,98642.83
2023-03-12T16:41:23.168Z,98647.80
2023-03-12T16:43:55.640Z,98646.80
2023-03-12T16:46:34.160Z,98644.48
2023-03-12T16:49:05.526Z,98639.42
2023-03-12T16:51:36.500Z,98638.31
2023-03-12T16:54:11.676Z,98630.77
2023-03-12T16:56:45.259Z,98635.78
2023-03-12T16:59:25.159Z,98632.73
2023-03-12T17:01:57.533Z,98633.81
2023-03-12T17:04:29.220Z,98639.23
2023-03-12T17:07:00.127Z,98637.59
2023-03-12T17:09:31.204Z,98646.36
2023-03-12T17:12:02.369Z,98650.27
2023-03-12T17:14:34.180Z,98649.55
2023-03-12T17:17:05.240Z,98655.59
2023-03-12T17:19:36.274Z,98663.60
2023-03-12T17:22:07.280Z,98667.01
2023-03-12T17:24:39.389Z,98668.13
2023-03-12T17:27:10.740Z,98668.48
2023-03-12T17:29:42.007Z,98662.70
2023-03-12T17:32:12.930Z,98673.09
2023-03-12T17:34:44.160Z,98668.67
2023-03-12T17:37:15.179Z,98671.88
2023-03-12T17:39:46.054Z,98670.13
2023-03-12T17:42:17.007Z,98669.73
2023-03-12T17:44:48.174Z,98669.75
2023-03-12T17:47:20.547Z,98666.48
2023-03-12T17:49:51.681Z,98667.46
2023-03-12T17:52:22.923Z,98672.66
2023-03-12T17:54:54.077Z,98667.30
2023-03-12T17:57:25.703Z,98672.13
2023-03-12T17:59:56.900Z,98671.73
2023-03-12T18:02:27.820Z,98677.29
2023-03-12T18:04:59.013Z,98683.35
2023-03-12T18:07:32.698Z,98675.04
2023-03-12T18:10:01.915Z,98667.73
2023-03-12T18:12:33.253Z,98673.19
2023-03-12T18:15:04.682Z,98679.77
2023-03-12T18:17:35.647Z,98693.39
2023-03-12T18:20:10.197Z,98687.04
2023-03-12T18:22:43.240Z,98689.31
2023-03-12T18:25:14.912Z,98691.80
2023-03-12T18:27:46.028Z,98687.36
2023-03-12T18:30:18.827Z,98690.23
2023-03-12T18:32:49.897Z,98696.75
2023-03-12T18:35:22.347Z,98711.85
2023-03-12T18:37:53.500Z,98709.34
2023-03-12T18:40:25.186Z,98718.77
2023-03-12T18:42:58.078Z,98728.11
2023-03-12T18:45:29.930Z,98737.02
2023-03-12T18:48:00.804Z,98730.83
2023-03-12T18:50:32.222Z,98730.29
2023-03-12T18:53:03.254Z,98728.80
2023-03-12T18:55:35.442Z,98723.75
2023-03-12T18:58:06.474Z,98720.05
2023-03-12T19:00:37.422Z,98721.08
2023-03-12T19:03:08.542Z,98717.54
2023-03-12T19:05:39.609Z,98723.34
2023-03-12T19:08:10.701Z,98716.58
2023-03-12T19:10:43.872Z,98722.39
2023-03-12T19:13:15.643Z,98719.52
2023-03-12T19:15:48.701Z,98714.41
2023-03-12T19:18:19.918Z,98714.63
2023-03-12T19:20:51.376Z,98720.40
2023-03-12T19:23:22.552Z,98719.14
2023-03-12T19:25:53.519Z,98709.94
2023-03-12T19:28:24.571Z,98700.77
2023-03-12T19:31:02.188Z,98698.67
2023-03-12T19:33:33.975Z,98703.38
2023-03-12T19:36:05.402Z,98701.03
2023-03-12T19:38:36.500Z,98699.00
2023-03-12T19:41:10.193Z,98703.79
2023-03-12T19:43:41.417Z,98693.52
2023-03-12T19:46:12.585Z,98688.56
2023-03-12T19:48:43.693Z,98685.64
2023-03-12T19:51:14.799Z,98679.17
2023-03-12T19:53:46.038Z,98675.17
2023-03-12T19:56:18.557Z,98678.73
2023-03-12T19:58:49.766Z,98681.97
2023-03-12T20:01:21.461Z,98689.30
2023-03-12T20:03:52.395Z,98689.65
2023-03-12T20:06:23.501Z,98690.20
2023-03-12T20:08:54.702Z,98688.34
2023-03-12T20:11:25.859Z,98682.90
2023-03-12T20:13:56.987Z,98684.95
2023-03-12T20:16:28.217Z,98688.98
2023-03-12T20:18:59.467Z,98683.88
2023-03-12T20:21:30.886Z,98681.78
2023-03-12T20:24:02.382Z,98680.33
2023-03-12T20:26:33.467Z,98682.48
2023-03-12T20:29:05.074Z,98682.41
2023-03-12T20:31:36.705Z,98683.68
2023-03-12T20:34:07.604Z,98683.68
2023-03-12T20:36:38.615Z,98683.09
2023-03-12T20:39:10.991Z,98687.77
2023-03-12T20:41:42.248Z,98687.64
2023-03-12T20:44:13.506Z,98688.70
2023-03-12T20:46:44.574Z,98691.52
2023-03-12T20:49:15.650Z,98697.01
2023-03-12T20:51:48.734Z,98698.96
2023-03-12T20:54:19.531Z,98694.99
2023-03-12T20:56:50.566Z,98689.40
2023-03-12T20:59:21.825Z,98683.71
2023-03-12T21:01:52.858Z,98684.46
2023-03-12T21:04:24.006Z,98690.27
2023-03-12T21:06:56.204Z,98691.54
2023-03-12T21:09:27.037Z,98692.05
2023-03-12T21:11:58.706Z,98693.59
2023-03-12T21:14:29.798Z,98692.48
2023-03-12T21:17:00.879Z,98689.55
2023-03-12T21:19:32.988Z,98688.16
2023-03-12T21:22:03.773Z,98683.18
2023-03-12T21:24:36.966Z,98686.65
2023-03-12T21:27:11.542Z,98682.06
2023-03-12T21:29:43.139Z,98689.38
2023-03-12T21:32:13.998Z,98686.50
2023-03-12T21:34:44.769Z,98685.66
2023-03-12T21:37:15.984Z,98689.54
2023-03-12T21:39:47.028Z,98686.29
2023-03-12T21:42:18.101Z,98686.77
2023-03-12T21:44:48.793Z,98689.27
2023-03-12T21:47:20.024Z,98688.20
2023-03-12T21:49:51.111Z,98685.29
2023-03-12T21:52:21.895Z,98683.86
2023-03-12T21:54:53.058Z,98689.56
2023-03-12T21:57:23.887Z,98687.94
2023-03-12T21:59:54.668Z,98685.75
2023-03-12T22:02:27.885Z,98684.23
2023-03-12T22:05:01.845Z,98682.58
2023-03-12T22:07:33.617Z,98684.36
2023-03-12T22:10:07.183Z,98683.55
2023-03-12T22:12:38.189Z,98684.30
2023-03-12T22:15:11.171Z,98685.13
2023-03-12T22:17:42.228Z,98686.30
2023-03-12T22:20:14.614Z,98684.34
2023-03-12T22:22:46.113Z,98677.24
2023-03-12T22:25:17.001Z,98676.33
2023-03-12T22:27:48.031Z,98680.54
2023-03-12T22:30:19.685Z,98681.08
2023-03-12T22:32:50.652Z,98681.11
2023-03-12T22:35:25.858Z,98681.38
2023-03-12T22:37:57.269Z,98681.67
2023-03-12T22:40:28.777Z,98676.68
2023-03-12T22:42:59.688Z,98677.76
2023-03-12T22:45:30.364Z,98675.58
2023-03-12T22:48:01.462Z,98678.58
2023-03-12T22:50:32.544Z,98676.20
2023-03-12T22:53:03.385Z,98673.12
2023-03-12T22:55:34.200Z,98674.54
2023-03-12T22:58:06.018Z,98678.77
2023-03-12T23:00:36.828Z,98669.42
2023-03-12T23:03:07.711Z,98664.84
2023-03-12T23:05:38.755Z,98667.81
2023-03-12T23:08:09.817Z,98664.95
2023-03-12T23:10:40.825Z,98663.79
2023-03-12T23:13:11.956Z,98656.26
2023-03-12T23:15:42.690Z,98653.80
2023-03-12T23:18:13.610Z,98654.02
2023-03-12T23:20:44.371Z,98651.75
2023-03-12T23:23:16.774Z,98644.61
2023-03-12T23:25:54.998Z,98637.05
2023-03-12T23:28:27.057Z,98632.58
2023-03-12T23:30:59.949Z,98629.98
2023-03-12T23:33:32.229Z,98627.04
2023-03-12T23:36:06.057Z,98623.45
2023-03-12T23:38:37.830Z,98622.33
2023-03-12T23:41:11.567Z,98622.11
2023-03-12T23:43:40.787Z,98616.37
2023-03-12T23:46:13.105Z,98616.20
2023-03-12T23:48:45.641Z,98614.74
2023-03-12T23:51:18.200Z,98614.72
2023-03-12T23:53:50.799Z,98609.63
2023-03-12T23:56:23.915Z,98601.26
2023-03-12T23:58:55.527Z,98602.80
